sensor_id;sensor_type;location;lat;lon;timestamp;P1;durP1;ratioP1;P2;durP2;ratioP2
6864;SDS011;3471;49.678;8.388;2023-07-22T00:00:58;4.00;;;2.40;;
6864;SDS011;3471;49.678;8.388;2023-07-22T00:03:24;2.40;;;1.90;;
6864;SDS011;3471;49.678;8.388;2023-07-22T00:06:01;2.20;;;1.90;;
6864;SDS011;3471;49.678;8.388;2023-07-22T00:08:34;3.05;;;2.42;;
6864;SDS011;3471;49.678;8.388;2023-07-22T00:11:00;3.03;;;2.05;;
6864;SDS011;3471;49.678;8.388;2023-07-22T00:13:26;2.47;;;2.28;;
6864;SDS011;3471;49.678;8.388;2023-07-22T00:15:55;4.30;;;2.30;;
6864;SDS011;3471;49.678;8.388;2023-07-22T00:18:21;2.95;;;2.38;;
6864;SDS011;3471;49.678;8.388;2023-07-22T00:20:49;2.90;;;2.20;;
6864;SDS011;3471;49.678;8.388;2023-07-22T00:23:15;2.90;;;2.42;;
6864;SDS011;3471;49.678;8.388;2023-07-22T00:25:41;3.90;;;2.50;;
6864;SDS011;3471;49.678;8.388;2023-07-22T00:28:07;2.75;;;2.45;;
6864;SDS011;3471;49.678;8.388;2023-07-22T00:30:32;2.87;;;2.23;;
6864;SDS011;3471;49.678;8.388;2023-07-22T00:32:59;3.40;;;2.70;;
6864;SDS011;3471;49.678;8.388;2023-07-22T00:35:25;4.80;;;2.42;;
6864;SDS011;3471;49.678;8.388;2023-07-22T00:37:51;2.30;;;2.10;;
6864;SDS011;3471;49.678;8.388;2023-07-22T00:40:17;3.07;;;2.87;;
6864;SDS011;3471;49.678;8.388;2023-07-22T00:42:43;2.93;;;2.13;;
6864;SDS011;3471;49.678;8.388;2023-07-22T00:45:08;2.40;;;1.77;;
6864;SDS011;3471;49.678;8.388;2023-07-22T00:47:34;3.10;;;2.20;;
6864;SDS011;3471;49.678;8.388;2023-07-22T00:50:03;3.38;;;2.88;;
6864;SDS011;3471;49.678;8.388;2023-07-22T00:52:31;2.77;;;2.50;;
6864;SDS011;3471;49.678;8.388;2023-07-22T00:54:58;7.23;;;3.80;;
6864;SDS011;3471;49.678;8.388;2023-07-22T00:57:24;5.00;;;3.22;;
6864;SDS011;3471;49.678;8.388;2023-07-22T00:59:49;3.03;;;2.10;;
6864;SDS011;3471;49.678;8.388;2023-07-22T01:02:15;2.50;;;2.30;;
6864;SDS011;3471;49.678;8.388;2023-07-22T01:04:41;3.35;;;3.00;;
6864;SDS011;3471;49.678;8.388;2023-07-22T01:07:07;2.15;;;1.70;;
6864;SDS011;3471;49.678;8.388;2023-07-22T01:09:41;4.00;;;2.20;;
6864;SDS011;3471;49.678;8.388;2023-07-22T01:12:08;2.95;;;2.65;;
6864;SDS011;3471;49.678;8.388;2023-07-22T01:14:39;2.77;;;2.40;;
6864;SDS011;3471;49.678;8.388;2023-07-22T01:17:06;2.60;;;2.40;;
6864;SDS011;3471;49.678;8.388;2023-07-22T01:19:33;3.00;;;2.70;;
6864;SDS011;3471;49.678;8.388;2023-07-22T01:21:59;3.20;;;1.90;;
6864;SDS011;3471;49.678;8.388;2023-07-22T01:24:27;5.40;;;2.40;;
6864;SDS011;3471;49.678;8.388;2023-07-22T01:26:53;2.37;;;2.17;;
6864;SDS011;3471;49.678;8.388;2023-07-22T01:29:19;2.92;;;2.35;;
6864;SDS011;3471;49.678;8.388;2023-07-22T01:31:51;5.63;;;3.63;;
6864;SDS011;3471;49.678;8.388;2023-07-22T01:34:18;7.20;;;3.25;;
6864;SDS011;3471;49.678;8.388;2023-07-22T01:36:45;2.77;;;2.57;;
6864;SDS011;3471;49.678;8.388;2023-07-22T01:39:12;3.50;;;2.80;;
6864;SDS011;3471;49.678;8.388;2023-07-22T01:41:39;3.65;;;2.50;;
6864;SDS011;3471;49.678;8.388;2023-07-22T01:44:05;7.38;;;2.35;;
6864;SDS011;3471;49.678;8.388;2023-07-22T01:46:30;3.80;;;2.97;;
6864;SDS011;3471;49.678;8.388;2023-07-22T01:48:56;4.60;;;3.10;;
6864;SDS011;3471;49.678;8.388;2023-07-22T01:51:21;4.75;;;3.90;;
6864;SDS011;3471;49.678;8.388;2023-07-22T01:53:47;3.13;;;2.83;;
6864;SDS011;3471;49.678;8.388;2023-07-22T01:56:14;3.33;;;3.03;;
6864;SDS011;3471;49.678;8.388;2023-07-22T01:58:41;3.08;;;2.78;;
6864;SDS011;3471;49.678;8.388;2023-07-22T02:01:07;8.68;;;2.97;;
6864;SDS011;3471;49.678;8.388;2023-07-22T02:03:32;3.53;;;2.60;;
6864;SDS011;3471;49.678;8.388;2023-07-22T02:06:02;4.03;;;3.07;;
6864;SDS011;3471;49.678;8.388;2023-07-22T02:08:28;3.42;;;3.13;;
6864;SDS011;3471;49.678;8.388;2023-07-22T02:10:53;3.50;;;2.57;;
6864;SDS011;3471;49.678;8.388;2023-07-22T02:13:19;3.83;;;3.43;;
6864;SDS011;3471;49.678;8.388;2023-07-22T02:15:45;3.77;;;3.10;;
6864;SDS011;3471;49.678;8.388;2023-07-22T02:18:11;9.45;;;4.45;;
6864;SDS011;3471;49.678;8.388;2023-07-22T02:20:36;4.10;;;3.70;;
6864;SDS011;3471;49.678;8.388;2023-07-22T02:23:02;6.68;;;4.00;;
6864;SDS011;3471;49.678;8.388;2023-07-22T02:25:27;4.00;;;3.60;;
6864;SDS011;3471;49.678;8.388;2023-07-22T02:27:53;5.75;;;4.05;;
6864;SDS011;3471;49.678;8.388;2023-07-22T02:30:18;3.70;;;3.40;;
6864;SDS011;3471;49.678;8.388;2023-07-22T02:32:44;7.28;;;2.60;;
6864;SDS011;3471;49.678;8.388;2023-07-22T02:35:10;3.88;;;3.58;;
6864;SDS011;3471;49.678;8.388;2023-07-22T02:37:36;2.42;;;2.20;;
6864;SDS011;3471;49.678;8.388;2023-07-22T02:40:03;5.20;;;3.30;;
6864;SDS011;3471;49.678;8.388;2023-07-22T02:42:39;4.37;;;3.50;;
6864;SDS011;3471;49.678;8.388;2023-07-22T02:45:04;4.28;;;3.30;;
6864;SDS011;3471;49.678;8.388;2023-07-22T02:47:32;4.05;;;3.65;;
6864;SDS011;3471;49.678;8.388;2023-07-22T02:49:59;3.80;;;3.50;;
6864;SDS011;3471;49.678;8.388;2023-07-22T02:52:25;4.93;;;3.63;;
6864;SDS011;3471;49.678;8.388;2023-07-22T02:55:04;4.40;;;4.00;;
6864;SDS011;3471;49.678;8.388;2023-07-22T02:57:33;3.70;;;3.30;;
6864;SDS011;3471;49.678;8.388;2023-07-22T02:59:59;8.27;;;3.65;;
6864;SDS011;3471;49.678;8.388;2023-07-22T03:02:25;3.88;;;3.42;;
6864;SDS011;3471;49.678;8.388;2023-07-22T03:04:50;3.50;;;3.20;;
6864;SDS011;3471;49.678;8.388;2023-07-22T03:07:16;7.50;;;3.40;;
6864;SDS011;3471;49.678;8.388;2023-07-22T03:09:41;5.40;;;3.85;;
6864;SDS011;3471;49.678;8.388;2023-07-22T03:12:07;7.13;;;4.03;;
6864;SDS011;3471;49.678;8.388;2023-07-22T03:14:33;3.20;;;2.85;;
6864;SDS011;3471;49.678;8.388;2023-07-22T03:17:01;3.22;;;2.97;;
6864;SDS011;3471;49.678;8.388;2023-07-22T03:19:28;2.90;;;2.60;;
6864;SDS011;3471;49.678;8.388;2023-07-22T03:21:54;3.20;;;2.73;;
6864;SDS011;3471;49.678;8.388;2023-07-22T03:24:20;3.97;;;3.58;;
6864;SDS011;3471;49.678;8.388;2023-07-22T03:26:46;3.30;;;2.47;;
6864;SDS011;3471;49.678;8.388;2023-07-22T03:29:11;3.00;;;2.50;;
6864;SDS011;3471;49.678;8.388;2023-07-22T03:31:37;3.95;;;3.55;;
6864;SDS011;3471;49.678;8.388;2023-07-22T03:34:03;6.43;;;3.40;;
6864;SDS011;3471;49.678;8.388;2023-07-22T03:36:28;3.72;;;2.50;;
6864;SDS011;3471;49.678;8.388;2023-07-22T03:38:54;3.47;;;3.17;;
6864;SDS011;3471;49.678;8.388;2023-07-22T03:41:20;8.27;;;3.47;;
6864;SDS011;3471;49.678;8.388;2023-07-22T03:43:45;3.77;;;3.17;;
6864;SDS011;3471;49.678;8.388;2023-07-22T03:46:11;4.17;;;3.53;;
6864;SDS011;3471;49.678;8.388;2023-07-22T03:48:36;4.40;;;3.50;;
6864;SDS011;3471;49.678;8.388;2023-07-22T03:51:02;3.03;;;2.80;;
6864;SDS011;3471;49.678;8.388;2023-07-22T03:53:28;3.00;;;2.65;;
6864;SDS011;3471;49.678;8.388;2023-07-22T03:55:53;6.33;;;3.07;;
6864;SDS011;3471;49.678;8.388;2023-07-22T03:58:19;3.03;;;2.47;;
6864;SDS011;3471;49.678;8.388;2023-07-22T04:00:47;10.07;;;3.00;;
6864;SDS011;3471;49.678;8.388;2023-07-22T04:03:14;5.65;;;3.50;;
6864;SDS011;3471;49.678;8.388;2023-07-22T04:05:39;5.00;;;3.53;;
6864;SDS011;3471;49.678;8.388;2023-07-22T04:08:05;3.33;;;3.03;;
6864;SDS011;3471;49.678;8.388;2023-07-22T04:10:31;4.40;;;4.00;;
6864;SDS011;3471;49.678;8.388;2023-07-22T04:12:56;10.40;;;5.23;;
6864;SDS011;3471;49.678;8.388;2023-07-22T04:15:22;14.43;;;4.80;;
6864;SDS011;3471;49.678;8.388;2023-07-22T04:17:48;9.45;;;4.75;;
6864;SDS011;3471;49.678;8.388;2023-07-22T04:20:13;3.00;;;2.70;;
6864;SDS011;3471;49.678;8.388;2023-07-22T04:22:39;6.82;;;3.75;;
6864;SDS011;3471;49.678;8.388;2023-07-22T04:25:06;6.53;;;4.65;;
6864;SDS011;3471;49.678;8.388;2023-07-22T04:27:33;4.50;;;4.10;;
6864;SDS011;3471;49.678;8.388;2023-07-22T04:29:59;4.38;;;3.95;;
6864;SDS011;3471;49.678;8.388;2023-07-22T04:32:25;5.68;;;3.33;;
6864;SDS011;3471;49.678;8.388;2023-07-22T04:34:51;3.72;;;3.42;;
6864;SDS011;3471;49.678;8.388;2023-07-22T04:37:16;5.90;;;3.65;;
6864;SDS011;3471;49.678;8.388;2023-07-22T04:39:42;7.45;;;4.05;;
6864;SDS011;3471;49.678;8.388;2023-07-22T04:42:11;4.27;;;3.43;;
6864;SDS011;3471;49.678;8.388;2023-07-22T04:44:36;3.80;;;3.40;;
6864;SDS011;3471;49.678;8.388;2023-07-22T04:47:02;3.50;;;3.20;;
6864;SDS011;3471;49.678;8.388;2023-07-22T04:49:28;4.03;;;3.63;;
6864;SDS011;3471;49.678;8.388;2023-07-22T04:51:53;4.87;;;3.93;;
6864;SDS011;3471;49.678;8.388;2023-07-22T04:54:19;5.70;;;3.90;;
6864;SDS011;3471;49.678;8.388;2023-07-22T04:56:44;9.00;;;5.72;;
6864;SDS011;3471;49.678;8.388;2023-07-22T04:59:10;3.50;;;3.03;;
6864;SDS011;3471;49.678;8.388;2023-07-22T05:01:37;4.78;;;3.92;;
6864;SDS011;3471;49.678;8.388;2023-07-22T05:04:02;4.90;;;3.90;;
6864;SDS011;3471;49.678;8.388;2023-07-22T05:11:20;4.93;;;4.00;;
6864;SDS011;3471;49.678;8.388;2023-07-22T05:13:48;5.00;;;3.78;;
6864;SDS011;3471;49.678;8.388;2023-07-22T05:16:14;4.00;;;3.60;;
6864;SDS011;3471;49.678;8.388;2023-07-22T05:18:39;4.35;;;3.95;;
6864;SDS011;3471;49.678;8.388;2023-07-22T05:21:05;4.30;;;3.70;;
6864;SDS011;3471;49.678;8.388;2023-07-22T05:23:31;4.50;;;3.70;;
6864;SDS011;3471;49.678;8.388;2023-07-22T05:25:57;5.63;;;2.90;;
6864;SDS011;3471;49.678;8.388;2023-07-22T05:28:22;4.40;;;3.33;;
6864;SDS011;3471;49.678;8.388;2023-07-22T05:30:48;6.03;;;3.87;;
6864;SDS011;3471;49.678;8.388;2023-07-22T05:33:13;5.03;;;3.55;;
6864;SDS011;3471;49.678;8.388;2023-07-22T05:35:39;5.70;;;2.80;;
6864;SDS011;3471;49.678;8.388;2023-07-22T05:38:04;3.40;;;3.10;;
6864;SDS011;3471;49.678;8.388;2023-07-22T05:40:31;15.63;;;4.90;;
6864;SDS011;3471;49.678;8.388;2023-07-22T05:42:57;3.70;;;3.40;;
6864;SDS011;3471;49.678;8.388;2023-07-22T05:45:22;2.73;;;2.53;;
6864;SDS011;3471;49.678;8.388;2023-07-22T05:47:48;4.23;;;3.00;;
6864;SDS011;3471;49.678;8.388;2023-07-22T05:50:13;3.97;;;3.23;;
6864;SDS011;3471;49.678;8.388;2023-07-22T05:52:39;2.37;;;2.13;;
6864;SDS011;3471;49.678;8.388;2023-07-22T05:55:05;3.37;;;3.07;;
6864;SDS011;3471;49.678;8.388;2023-07-22T05:57:30;3.30;;;3.00;;
6864;SDS011;3471;49.678;8.388;2023-07-22T05:59:56;3.33;;;3.03;;
6864;SDS011;3471;49.678;8.388;2023-07-22T06:02:22;3.63;;;3.07;;
6864;SDS011;3471;49.678;8.388;2023-07-22T06:04:47;2.83;;;2.63;;
6864;SDS011;3471;49.678;8.388;2023-07-22T06:07:13;4.87;;;3.20;;
6864;SDS011;3471;49.678;8.388;2023-07-22T06:09:39;2.87;;;2.63;;
6864;SDS011;3471;49.678;8.388;2023-07-22T06:12:04;8.00;;;3.47;;
6864;SDS011;3471;49.678;8.388;2023-07-22T06:14:30;3.30;;;2.40;;
6864;SDS011;3471;49.678;8.388;2023-07-22T06:16:56;4.10;;;2.80;;
6864;SDS011;3471;49.678;8.388;2023-07-22T06:19:22;3.03;;;2.60;;
6864;SDS011;3471;49.678;8.388;2023-07-22T06:21:48;3.28;;;2.97;;
6864;SDS011;3471;49.678;8.388;2023-07-22T06:24:14;5.50;;;3.78;;
6864;SDS011;3471;49.678;8.388;2023-07-22T06:26:40;4.70;;;3.80;;
6864;SDS011;3471;49.678;8.388;2023-07-22T06:29:05;4.43;;;3.28;;
6864;SDS011;3471;49.678;8.388;2023-07-22T06:31:31;4.00;;;3.10;;
6864;SDS011;3471;49.678;8.388;2023-07-22T06:33:57;3.50;;;3.20;;
6864;SDS011;3471;49.678;8.388;2023-07-22T06:36:24;4.50;;;3.28;;
6864;SDS011;3471;49.678;8.388;2023-07-22T06:38:50;4.88;;;3.60;;
6864;SDS011;3471;49.678;8.388;2023-07-22T06:41:16;4.40;;;3.00;;
6864;SDS011;3471;49.678;8.388;2023-07-22T06:43:42;8.02;;;3.42;;
6864;SDS011;3471;49.678;8.388;2023-07-22T06:46:08;3.33;;;3.03;;
6864;SDS011;3471;49.678;8.388;2023-07-22T06:48:34;5.40;;;3.45;;
6864;SDS011;3471;49.678;8.388;2023-07-22T06:50:59;3.85;;;2.80;;
6864;SDS011;3471;49.678;8.388;2023-07-22T06:53:25;7.40;;;3.92;;
6864;SDS011;3471;49.678;8.388;2023-07-22T06:55:51;5.45;;;3.33;;
6864;SDS011;3471;49.678;8.388;2023-07-22T06:58:18;3.53;;;2.75;;
6864;SDS011;3471;49.678;8.388;2023-07-22T07:00:44;4.28;;;3.00;;
6864;SDS011;3471;49.678;8.388;2023-07-22T07:03:09;18.02;;;4.10;;
6864;SDS011;3471;49.678;8.388;2023-07-22T07:05:35;8.80;;;3.10;;
6864;SDS011;3471;49.678;8.388;2023-07-22T07:08:01;3.80;;;3.30;;
6864;SDS011;3471;49.678;8.388;2023-07-22T07:10:27;5.40;;;4.00;;
6864;SDS011;3471;49.678;8.388;2023-07-22T07:12:52;9.03;;;3.57;;
6864;SDS011;3471;49.678;8.388;2023-07-22T07:15:18;7.28;;;5.35;;
6864;SDS011;3471;49.678;8.388;2023-07-22T07:17:43;11.25;;;5.03;;
6864;SDS011;3471;49.678;8.388;2023-07-22T07:20:09;6.90;;;4.40;;
6864;SDS011;3471;49.678;8.388;2023-07-22T07:22:35;4.60;;;4.20;;
6864;SDS011;3471;49.678;8.388;2023-07-22T07:25:01;5.00;;;4.00;;
6864;SDS011;3471;49.678;8.388;2023-07-22T07:27:27;10.25;;;7.00;;
6864;SDS011;3471;49.678;8.388;2023-07-22T07:29:53;6.40;;;5.23;;
6864;SDS011;3471;49.678;8.388;2023-07-22T07:32:18;6.80;;;5.90;;
6864;SDS011;3471;49.678;8.388;2023-07-22T07:34:44;8.50;;;5.70;;
6864;SDS011;3471;49.678;8.388;2023-07-22T07:37:09;11.40;;;5.90;;
6864;SDS011;3471;49.678;8.388;2023-07-22T07:39:35;8.47;;;6.57;;
6864;SDS011;3471;49.678;8.388;2023-07-22T07:42:00;7.35;;;5.90;;
6864;SDS011;3471;49.678;8.388;2023-07-22T07:44:26;5.15;;;4.63;;
6864;SDS011;3471;49.678;8.388;2023-07-22T07:46:51;7.18;;;5.47;;
6864;SDS011;3471;49.678;8.388;2023-07-22T07:49:17;8.50;;;7.40;;
6864;SDS011;3471;49.678;8.388;2023-07-22T07:51:43;5.73;;;4.80;;
6864;SDS011;3471;49.678;8.388;2023-07-22T07:54:08;9.77;;;4.83;;
6864;SDS011;3471;49.678;8.388;2023-07-22T07:56:34;6.60;;;5.70;;
6864;SDS011;3471;49.678;8.388;2023-07-22T07:59:00;4.95;;;4.45;;
6864;SDS011;3471;49.678;8.388;2023-07-22T08:01:27;7.03;;;4.18;;
6864;SDS011;3471;49.678;8.388;2023-07-22T08:03:53;5.68;;;5.15;;
6864;SDS011;3471;49.678;8.388;2023-07-22T08:06:19;6.82;;;4.60;;
6864;SDS011;3471;49.678;8.388;2023-07-22T08:08:44;5.72;;;4.13;;
6864;SDS011;3471;49.678;8.388;2023-07-22T08:11:11;7.18;;;4.05;;
6864;SDS011;3471;49.678;8.388;2023-07-22T08:13:40;5.35;;;4.85;;
6864;SDS011;3471;49.678;8.388;2023-07-22T08:16:08;4.57;;;4.28;;
6864;SDS011;3471;49.678;8.388;2023-07-22T08:18:35;9.93;;;5.33;;
6864;SDS011;3471;49.678;8.388;2023-07-22T08:21:02;7.05;;;5.18;;
6864;SDS011;3471;49.678;8.388;2023-07-22T08:23:29;8.82;;;4.80;;
6864;SDS011;3471;49.678;8.388;2023-07-22T08:25:55;5.50;;;5.00;;
6864;SDS011;3471;49.678;8.388;2023-07-22T08:28:20;9.83;;;5.23;;
6864;SDS011;3471;49.678;8.388;2023-07-22T08:30:49;7.32;;;6.05;;
6864;SDS011;3471;49.678;8.388;2023-07-22T08:33:15;7.00;;;5.95;;
6864;SDS011;3471;49.678;8.388;2023-07-22T08:35:42;10.70;;;6.87;;
6864;SDS011;3471;49.678;8.388;2023-07-22T08:38:08;5.32;;;4.82;;
6864;SDS011;3471;49.678;8.388;2023-07-22T08:40:34;6.07;;;4.97;;
6864;SDS011;3471;49.678;8.388;2023-07-22T08:43:05;7.20;;;4.85;;
6864;SDS011;3471;49.678;8.388;2023-07-22T08:45:32;11.15;;;5.05;;
6864;SDS011;3471;49.678;8.388;2023-07-22T08:48:08;8.98;;;4.90;;
6864;SDS011;3471;49.678;8.388;2023-07-22T08:53:06;7.28;;;4.25;;
6864;SDS011;3471;49.678;8.388;2023-07-22T08:55:32;8.65;;;4.25;;
6864;SDS011;3471;49.678;8.388;2023-07-22T08:57:59;7.10;;;4.07;;
6864;SDS011;3471;49.678;8.388;2023-07-22T09:00:26;4.63;;;4.20;;
6864;SDS011;3471;49.678;8.388;2023-07-22T09:02:52;7.20;;;3.58;;
6864;SDS011;3471;49.678;8.388;2023-07-22T09:05:18;5.43;;;4.93;;
6864;SDS011;3471;49.678;8.388;2023-07-22T09:07:44;4.27;;;3.87;;
6864;SDS011;3471;49.678;8.388;2023-07-22T09:10:13;4.00;;;3.35;;
6864;SDS011;3471;49.678;8.388;2023-07-22T09:12:41;7.10;;;3.50;;
6864;SDS011;3471;49.678;8.388;2023-07-22T09:15:10;15.02;;;4.65;;
6864;SDS011;3471;49.678;8.388;2023-07-22T09:17:40;27.30;;;9.48;;
6864;SDS011;3471;49.678;8.388;2023-07-22T09:20:06;33.38;;;8.98;;
6864;SDS011;3471;49.678;8.388;2023-07-22T09:22:33;18.20;;;4.55;;
6864;SDS011;3471;49.678;8.388;2023-07-22T09:25:12;17.60;;;5.80;;
6864;SDS011;3471;49.678;8.388;2023-07-22T09:27:49;53.25;;;14.15;;
6864;SDS011;3471;49.678;8.388;2023-07-22T09:30:29;31.38;;;9.75;;
6864;SDS011;3471;49.678;8.388;2023-07-22T09:33:00;7.20;;;3.90;;
6864;SDS011;3471;49.678;8.388;2023-07-22T09:35:44;7.15;;;4.10;;
6864;SDS011;3471;49.678;8.388;2023-07-22T09:38:11;13.50;;;4.20;;
6864;SDS011;3471;49.678;8.388;2023-07-22T09:40:39;12.25;;;5.07;;
6864;SDS011;3471;49.678;8.388;2023-07-22T09:43:06;8.70;;;3.08;;
6864;SDS011;3471;49.678;8.388;2023-07-22T09:45:34;4.95;;;4.45;;
6864;SDS011;3471;49.678;8.388;2023-07-22T09:48:00;5.90;;;3.40;;
6864;SDS011;3471;49.678;8.388;2023-07-22T09:50:26;19.30;;;5.80;;
6864;SDS011;3471;49.678;8.388;2023-07-22T09:52:56;18.83;;;5.30;;
6864;SDS011;3471;49.678;8.388;2023-07-22T09:55:28;6.40;;;3.78;;
6864;SDS011;3471;49.678;8.388;2023-07-22T09:57:57;5.50;;;4.38;;
6864;SDS011;3471;49.678;8.388;2023-07-22T10:00:28;8.07;;;4.10;;
6864;SDS011;3471;49.678;8.388;2023-07-22T10:03:04;7.15;;;4.38;;
6864;SDS011;3471;49.678;8.388;2023-07-22T10:05:35;9.77;;;4.53;;
6864;SDS011;3471;49.678;8.388;2023-07-22T10:08:04;25.20;;;9.05;;
6864;SDS011;3471;49.678;8.388;2023-07-22T10:10:35;13.70;;;5.18;;
6864;SDS011;3471;49.678;8.388;2023-07-22T10:13:03;10.45;;;3.60;;
6864;SDS011;3471;49.678;8.388;2023-07-22T10:15:30;38.70;;;8.98;;
6864;SDS011;3471;49.678;8.388;2023-07-22T10:17:58;21.03;;;7.20;;
6864;SDS011;3471;49.678;8.388;2023-07-22T10:20:25;12.95;;;4.70;;
6864;SDS011;3471;49.678;8.388;2023-07-22T10:22:51;23.08;;;8.98;;
6864;SDS011;3471;49.678;8.388;2023-07-22T10:25:17;9.15;;;4.30;;
6864;SDS011;3471;49.678;8.388;2023-07-22T10:27:44;6.00;;;3.50;;
6864;SDS011;3471;49.678;8.388;2023-07-22T10:30:14;3.50;;;3.20;;
6864;SDS011;3471;49.678;8.388;2023-07-22T10:32:42;3.13;;;2.72;;
6864;SDS011;3471;49.678;8.388;2023-07-22T10:35:16;3.65;;;3.25;;
6864;SDS011;3471;49.678;8.388;2023-07-22T10:37:54;5.40;;;4.05;;
6864;SDS011;3471;49.678;8.388;2023-07-22T10:42:55;7.40;;;3.85;;
6864;SDS011;3471;49.678;8.388;2023-07-22T10:45:40;3.50;;;2.70;;
6864;SDS011;3471;49.678;8.388;2023-07-22T10:48:13;4.30;;;3.10;;
6864;SDS011;3471;49.678;8.388;2023-07-22T10:50:46;4.60;;;3.40;;
6864;SDS011;3471;49.678;8.388;2023-07-22T10:53:14;4.15;;;2.60;;
6864;SDS011;3471;49.678;8.388;2023-07-22T11:12:18;5.03;;;3.30;;
6864;SDS011;3471;49.678;8.388;2023-07-22T11:14:52;2.70;;;2.40;;
6864;SDS011;3471;49.678;8.388;2023-07-22T11:17:30;4.40;;;3.00;;
6864;SDS011;3471;49.678;8.388;2023-07-22T11:19:57;6.75;;;2.70;;
6864;SDS011;3471;49.678;8.388;2023-07-22T11:22:24;6.35;;;4.00;;
6864;SDS011;3471;49.678;8.388;2023-07-22T11:24:50;3.85;;;2.55;;
6864;SDS011;3471;49.678;8.388;2023-07-22T11:27:17;5.15;;;2.90;;
6864;SDS011;3471;49.678;8.388;2023-07-22T11:29:43;8.52;;;2.80;;
6864;SDS011;3471;49.678;8.388;2023-07-22T11:32:16;2.42;;;2.22;;
6864;SDS011;3471;49.678;8.388;2023-07-22T11:34:44;5.00;;;2.60;;
6864;SDS011;3471;49.678;8.388;2023-07-22T11:37:10;4.93;;;2.80;;
6864;SDS011;3471;49.678;8.388;2023-07-22T11:39:35;4.95;;;3.25;;
6864;SDS011;3471;49.678;8.388;2023-07-22T11:42:02;3.35;;;2.80;;
6864;SDS011;3471;49.678;8.388;2023-07-22T11:44:29;3.42;;;2.55;;
6864;SDS011;3471;49.678;8.388;2023-07-22T11:47:02;4.13;;;3.40;;
6864;SDS011;3471;49.678;8.388;2023-07-22T11:52:02;6.35;;;2.95;;
6864;SDS011;3471;49.678;8.388;2023-07-22T11:54:30;3.38;;;3.08;;
6864;SDS011;3471;49.678;8.388;2023-07-22T11:57:09;5.13;;;3.10;;
6864;SDS011;3471;49.678;8.388;2023-07-22T11:59:36;4.72;;;3.30;;
6864;SDS011;3471;49.678;8.388;2023-07-22T12:02:02;3.20;;;2.70;;
6864;SDS011;3471;49.678;8.388;2023-07-22T12:04:30;3.90;;;3.53;;
6864;SDS011;3471;49.678;8.388;2023-07-22T12:07:02;5.47;;;2.80;;
6864;SDS011;3471;49.678;8.388;2023-07-22T12:09:29;6.50;;;2.97;;
6864;SDS011;3471;49.678;8.388;2023-07-22T12:11:58;6.53;;;3.25;;
6864;SDS011;3471;49.678;8.388;2023-07-22T12:14:25;4.20;;;3.40;;
6864;SDS011;3471;49.678;8.388;2023-07-22T12:16:59;3.33;;;3.03;;
6864;SDS011;3471;49.678;8.388;2023-07-22T12:19:26;5.10;;;2.70;;
6864;SDS011;3471;49.678;8.388;2023-07-22T12:21:53;5.50;;;2.92;;
6864;SDS011;3471;49.678;8.388;2023-07-22T12:24:19;4.37;;;3.67;;
6864;SDS011;3471;49.678;8.388;2023-07-22T12:26:45;4.23;;;3.00;;
6864;SDS011;3471;49.678;8.388;2023-07-22T12:29:10;3.15;;;2.78;;
6864;SDS011;3471;49.678;8.388;2023-07-22T12:31:36;6.68;;;2.80;;
6864;SDS011;3471;49.678;8.388;2023-07-22T12:34:01;7.07;;;3.33;;
6864;SDS011;3471;49.678;8.388;2023-07-22T12:36:27;4.93;;;3.07;;
6864;SDS011;3471;49.678;8.388;2023-07-22T12:38:53;3.92;;;2.60;;
6864;SDS011;3471;49.678;8.388;2023-07-22T12:41:18;3.10;;;2.80;;
6864;SDS011;3471;49.678;8.388;2023-07-22T12:43:44;11.03;;;2.43;;
6864;SDS011;3471;49.678;8.388;2023-07-22T12:46:09;9.35;;;2.38;;
6864;SDS011;3471;49.678;8.388;2023-07-22T12:48:35;2.50;;;2.10;;
6864;SDS011;3471;49.678;8.388;2023-07-22T12:51:01;3.90;;;3.33;;
6864;SDS011;3471;49.678;8.388;2023-07-22T12:53:27;4.60;;;4.07;;
6864;SDS011;3471;49.678;8.388;2023-07-22T12:55:53;8.10;;;3.30;;
6864;SDS011;3471;49.678;8.388;2023-07-22T12:58:18;4.20;;;3.03;;
6864;SDS011;3471;49.678;8.388;2023-07-22T13:00:44;3.20;;;2.63;;
6864;SDS011;3471;49.678;8.388;2023-07-22T13:03:10;4.80;;;3.03;;
6864;SDS011;3471;49.678;8.388;2023-07-22T13:05:35;3.87;;;2.40;;
6864;SDS011;3471;49.678;8.388;2023-07-22T13:08:01;2.45;;;2.25;;
6864;SDS011;3471;49.678;8.388;2023-07-22T13:10:27;3.83;;;3.50;;
6864;SDS011;3471;49.678;8.388;2023-07-22T13:12:54;5.32;;;3.15;;
6864;SDS011;3471;49.678;8.388;2023-07-22T13:15:19;4.25;;;2.65;;
6864;SDS011;3471;49.678;8.388;2023-07-22T13:17:45;4.80;;;2.70;;
6864;SDS011;3471;49.678;8.388;2023-07-22T13:20:11;3.10;;;2.40;;
6864;SDS011;3471;49.678;8.388;2023-07-22T13:22:37;4.28;;;2.95;;
6864;SDS011;3471;49.678;8.388;2023-07-22T13:25:03;4.65;;;2.88;;
6864;SDS011;3471;49.678;8.388;2023-07-22T13:27:30;4.05;;;2.92;;
6864;SDS011;3471;49.678;8.388;2023-07-22T13:29:55;4.30;;;3.00;;
6864;SDS011;3471;49.678;8.388;2023-07-22T13:32:21;8.60;;;4.00;;
6864;SDS011;3471;49.678;8.388;2023-07-22T13:34:46;3.03;;;2.43;;
6864;SDS011;3471;49.678;8.388;2023-07-22T13:37:12;4.45;;;2.53;;
6864;SDS011;3471;49.678;8.388;2023-07-22T13:39:38;11.73;;;3.40;;
6864;SDS011;3471;49.678;8.388;2023-07-22T13:42:03;4.40;;;3.13;;
6864;SDS011;3471;49.678;8.388;2023-07-22T13:44:29;13.00;;;3.60;;
6864;SDS011;3471;49.678;8.388;2023-07-22T13:46:55;3.83;;;3.15;;
6864;SDS011;3471;49.678;8.388;2023-07-22T13:49:21;4.95;;;3.03;;
6864;SDS011;3471;49.678;8.388;2023-07-22T13:51:47;6.33;;;3.27;;
6864;SDS011;3471;49.678;8.388;2023-07-22T13:54:12;7.40;;;3.05;;
6864;SDS011;3471;49.678;8.388;2023-07-22T13:56:38;4.73;;;3.60;;
6864;SDS011;3471;49.678;8.388;2023-07-22T13:59:03;3.40;;;3.10;;
6864;SDS011;3471;49.678;8.388;2023-07-22T14:01:29;4.05;;;3.63;;
6864;SDS011;3471;49.678;8.388;2023-07-22T14:03:56;4.25;;;3.85;;
6864;SDS011;3471;49.678;8.388;2023-07-22T14:06:22;5.18;;;3.53;;
6864;SDS011;3471;49.678;8.388;2023-07-22T14:08:48;5.10;;;3.90;;
6864;SDS011;3471;49.678;8.388;2023-07-22T14:11:13;4.27;;;3.30;;
6864;SDS011;3471;49.678;8.388;2023-07-22T14:13:39;3.58;;;2.50;;
6864;SDS011;3471;49.678;8.388;2023-07-22T14:16:04;6.00;;;4.07;;
6864;SDS011;3471;49.678;8.388;2023-07-22T14:18:30;3.70;;;3.40;;
6864;SDS011;3471;49.678;8.388;2023-07-22T14:20:55;9.07;;;3.30;;
6864;SDS011;3471;49.678;8.388;2023-07-22T14:23:21;4.93;;;3.10;;
6864;SDS011;3471;49.678;8.388;2023-07-22T14:25:47;6.63;;;3.40;;
6864;SDS011;3471;49.678;8.388;2023-07-22T14:28:12;3.90;;;2.85;;
6864;SDS011;3471;49.678;8.388;2023-07-22T14:30:38;5.17;;;2.70;;
6864;SDS011;3471;49.678;8.388;2023-07-22T14:33:03;5.55;;;4.22;;
6864;SDS011;3471;49.678;8.388;2023-07-22T14:35:29;4.47;;;3.30;;
6864;SDS011;3471;49.678;8.388;2023-07-22T14:37:57;4.43;;;3.90;;
6864;SDS011;3471;49.678;8.388;2023-07-22T14:40:25;3.30;;;2.80;;
6864;SDS011;3471;49.678;8.388;2023-07-22T14:42:50;4.05;;;3.35;;
6864;SDS011;3471;49.678;8.388;2023-07-22T14:45:16;3.88;;;3.25;;
6864;SDS011;3471;49.678;8.388;2023-07-22T14:47:42;3.85;;;2.92;;
6864;SDS011;3471;49.678;8.388;2023-07-22T14:50:07;3.80;;;3.17;;
6864;SDS011;3471;49.678;8.388;2023-07-22T14:52:34;4.97;;;3.35;;
6864;SDS011;3471;49.678;8.388;2023-07-22T14:54:59;3.47;;;3.17;;
6864;SDS011;3471;49.678;8.388;2023-07-22T14:57:25;4.13;;;2.93;;
6864;SDS011;3471;49.678;8.388;2023-07-22T14:59:55;7.43;;;4.57;;
6864;SDS011;3471;49.678;8.388;2023-07-22T15:02:21;5.77;;;3.83;;
6864;SDS011;3471;49.678;8.388;2023-07-22T15:04:49;4.60;;;3.10;;
6864;SDS011;3471;49.678;8.388;2023-07-22T15:07:14;4.05;;;3.15;;
6864;SDS011;3471;49.678;8.388;2023-07-22T15:09:40;5.70;;;3.70;;
6864;SDS011;3471;49.678;8.388;2023-07-22T15:12:06;12.07;;;4.97;;
6864;SDS011;3471;49.678;8.388;2023-07-22T15:14:32;3.30;;;2.53;;
6864;SDS011;3471;49.678;8.388;2023-07-22T15:16:58;5.97;;;3.08;;
6864;SDS011;3471;49.678;8.388;2023-07-22T15:19:24;5.10;;;3.50;;
6864;SDS011;3471;49.678;8.388;2023-07-22T15:21:49;4.00;;;3.30;;
6864;SDS011;3471;49.678;8.388;2023-07-22T15:24:15;5.30;;;3.93;;
6864;SDS011;3471;49.678;8.388;2023-07-22T15:26:40;4.20;;;3.25;;
6864;SDS011;3471;49.678;8.388;2023-07-22T15:29:06;10.70;;;3.30;;
6864;SDS011;3471;49.678;8.388;2023-07-22T15:31:32;7.70;;;3.47;;
6864;SDS011;3471;49.678;8.388;2023-07-22T15:33:58;3.25;;;2.85;;
6864;SDS011;3471;49.678;8.388;2023-07-22T15:36:23;4.20;;;3.80;;
6864;SDS011;3471;49.678;8.388;2023-07-22T15:38:49;4.60;;;4.20;;
6864;SDS011;3471;49.678;8.388;2023-07-22T15:41:14;5.80;;;3.58;;